Time;durP1;ratioP1;P1;durP2;ratioP2;P2;SDS_P1;SDS_P2;PMS_P1;PMS_P2;Temp;Humidity;BMP_temperature;BMP_pressure;BME280_temperature;BME280_humidity;BME280_pressure;Samples;Min_cycle;Max_cycle;Signal;HPM_P1;HPM_P2
2022/03/01 03:13:47;;;;;;;13.10;7.23;;;-1.70;55.60;;;;;;6201265;23;20155;-85
2022/03/01 03:16:19;;;;;;;14.00;7.47;;;-1.70;54.20;;;;;;6195690;23;20187;-85
2022/03/01 03:18:48;;;;;;;12.57;7.43;;;-1.90;55.10;;;;;;6171526;23;20193;-87
2022/03/01 03:22:13;;;;;;;13.50;7.07;;;-2.00;54.80;;;;;;6202324;23;20660;-85
2022/03/01 03:25:16;;;;;;;12.13;7.23;;;-1.90;56.30;;;;;;6187285;23;20286;-85
2022/03/01 03:27:44;;;;;;;13.87;7.40;;;-1.50;58.30;;;;;;6201128;23;20197;-84
2022/03/01 03:30:21;;;;;;;13.93;7.60;;;-1.50;54.60;;;;;;6198188;23;20221;-86
2022/03/01 03:32:49;;;;;;;12.07;7.63;;;-1.60;54.70;;;;;;6176393;23;20177;-86
2022/03/01 03:35:40;;;;;;;12.93;7.73;;;-1.70;56.30;;;;;;6166305;23;20274;-85
2022/03/01 03:38:07;;;;;;;12.60;6.70;;;-1.80;55.70;;;;;;6200980;23;20181;-85
2022/03/01 03:40:47;;;;;;;;;;;;;;;;;;;;;
2022/03/01 03:43:18;;;;;;;12.87;7.20;;;-2.10;56.10;;;;;;6175109;23;20182;-86
2022/03/01 03:45:45;;;;;;;13.20;7.67;;;-2.10;56.40;;;;;;6200545;23;20206;-84
2022/03/01 03:48:13;;;;;;;11.57;7.03;;;-2.00;58.00;;;;;;6201831;23;20199;-84
2022/03/01 03:50:45;;;;;;;13.23;7.70;;;-2.10;57.00;;;;;;6200390;23;20257;-84
2022/03/01 03:53:12;;;;;;;11.40;7.13;;;-2.20;58.00;;;;;;6199732;23;20521;-85
2022/03/01 03:58:45;;;;;;;13.37;6.93;;;-2.10;62.30;;;;;;6197486;23;20161;-85
2022/03/01 04:01:13;;;;;;;13.97;7.20;;;-1.60;56.20;;;;;;6194210;23;20195;-85
2022/03/01 04:03:41;;;;;;;14.27;7.43;;;-1.60;55.60;;;;;;6196819;23;20286;-85
2022/03/01 04:06:09;;;;;;;9.17;6.13;;;-1.50;55.60;;;;;;6154253;23;20198;-84
2022/03/01 04:08:36;;;;;;;11.70;6.93;;;-1.60;56.70;;;;;;6194168;23;20163;-84
2022/03/01 04:11:08;;;;;;;12.40;7.33;;;-1.40;58.10;;;;;;6194309;23;20203;-86
2022/03/01 04:13:41;;;;;;;13.50;7.30;;;-1.50;54.00;;;;;;6169847;23;20657;-86
2022/03/01 04:16:21;;;;;;;12.10;7.20;;;-1.70;55.70;;;;;;6191598;23;20194;-87
2022/03/01 04:18:48;;;;;;;13.90;7.70;;;-2.00;56.80;;;;;;6199197;23;20185;-87
2022/03/01 04:24:55;;;;;;;15.33;7.30;;;-2.30;58.40;;;;;;6193495;23;20206;-87
2022/03/01 04:27:48;;;;;;;12.90;7.13;;;-2.50;60.30;;;;;;6169186;23;20185;-87
2022/03/01 04:30:16;;;;;;;12.13;6.93;;;-2.50;60.50;;;;;;6191691;23;20226;-85
2022/03/01 04:33:20;;;;;;;11.63;7.43;;;-2.50;61.50;;;;;;6193837;23;20205;-87
2022/03/01 04:42:41;;;;;;;12.70;7.50;;;-2.30;62.00;;;;;;6189066;23;20193;-88
2022/03/01 04:45:09;;;;;;;15.20;7.40;;;-2.30;60.10;;;;;;6163860;23;20210;-86
2022/03/01 04:47:36;;;;;;;13.40;7.20;;;-2.50;61.80;;;;;;6166724;23;20221;-85
2022/03/01 04:57:52;;;;;;;11.43;7.07;;;-2.60;61.80;;;;;;6203000;23;20418;-85
2022/03/01 05:00:21;;;;;;;11.40;6.50;;;-2.70;66.00;;;;;;6193536;23;20518;-86
2022/03/01 05:02:48;;;;;;;12.97;7.03;;;-2.20;62.20;;;;;;6166928;23;20182;-85
2022/03/01 05:05:16;;;;;;;12.37;7.10;;;-1.90;62.50;;;;;;6162896;23;20206;-85
2022/03/01 05:07:45;;;;;;;11.77;6.73;;;-1.90;60.00;;;;;;6193963;23;20202;-85
2022/03/01 05:10:14;;;;;;;12.27;6.70;;;-1.90;57.90;;;;;;6191898;23;20211;-86
2022/03/01 05:12:45;;;;;;;12.80;7.30;;;-2.10;57.40;;;;;;6190147;23;20186;-86
2022/03/01 05:15:16;;;;;;;11.53;7.03;;;-2.20;59.20;;;;;;6158591;23;20635;-89
2022/03/01 05:17:43;;;;;;;13.63;6.77;;;-2.20;62.10;;;;;;6188678;23;20167;-84
2022/03/01 05:20:11;;;;;;;11.93;6.57;;;-2.30;61.00;;;;;;6189203;23;20269;-83
2022/03/01 05:22:39;;;;;;;11.93;6.20;;;-2.40;59.40;;;;;;6190054;23;20492;-83
2022/03/01 05:25:09;;;;;;;12.90;6.73;;;-2.40;60.80;;;;;;6188746;23;20226;-84
2022/03/01 05:27:36;;;;;;;11.83;6.90;;;-2.60;60.50;;;;;;6189842;23;20193;-84
2022/03/01 05:30:04;;;;;;;13.77;7.13;;;-2.60;61.70;;;;;;6188446;23;20273;-84
2022/03/01 05:32:34;;;;;;;11.67;6.47;;;-2.70;61.70;;;;;;6189271;23;20580;-84
2022/03/01 05:38:25;;;;;;;11.83;6.60;;;-2.60;61.80;;;;;;6190160;23;20149;-84
2022/03/01 05:40:52;;;;;;;10.37;6.80;;;-2.70;61.60;;;;;;6189210;23;20236;-84
2022/03/01 05:43:18;;;;;;;12.40;7.03;;;-2.80;61.60;;;;;;6191228;23;20193;-84
2022/03/01 05:46:16;;;;;;;10.23;6.63;;;-2.80;61.60;;;;;;6188179;23;20199;-84
2022/03/01 06:04:16;;;;;;;11.27;6.60;;;-2.90;62.10;;;;;;6218595;23;20523;-85
2022/03/01 06:06:43;;;;;;;12.87;7.33;;;-2.70;61.70;;;;;;6217731;23;20180;-85
2022/03/01 06:09:10;;;;;;;11.90;7.13;;;-2.80;61.60;;;;;;6192258;23;20197;-85
2022/03/01 06:11:46;;;;;;;10.47;6.53;;;-2.90;61.50;;;;;;6217770;23;20204;-86
2022/03/01 06:14:13;;;;;;;11.60;6.80;;;-2.80;62.30;;;;;;6217700;23;20287;-85
2022/03/01 06:16:40;;;;;;;12.27;7.10;;;-2.90;61.50;;;;;;6220511;23;20640;-88
2022/03/01 06:19:07;;;;;;;12.03;6.93;;;-2.90;62.50;;;;;;6220947;23;20220;-86
2022/03/01 06:21:36;;;;;;;10.20;6.40;;;-2.90;64.40;;;;;;6195184;23;20453;-87
2022/03/01 06:24:04;;;;;;;12.53;6.27;;;-2.80;61.60;;;;;;6221075;23;20226;-85
2022/03/01 06:26:32;;;;;;;13.63;6.47;;;-2.80;61.60;;;;;;6195500;23;20181;-86
2022/03/01 06:28:59;;;;;;;11.47;6.47;;;-2.90;62.90;;;;;;6219897;23;20201;-85
2022/03/01 06:31:26;;;;;;;12.90;6.47;;;-2.70;70.10;;;;;;6223071;23;20165;-84
2022/03/01 06:38:07;;;;;;;11.57;5.80;;;-1.90;62.60;;;;;;6222107;23;20213;-86
2022/03/01 06:40:36;;;;;;;10.50;5.87;;;-1.80;57.90;;;;;;6226037;23;20171;-86
2022/03/01 06:43:03;;;;;;;12.77;6.70;;;-1.70;58.00;;;;;;6223229;23;20673;-85
2022/03/01 07:18:25;;;;;;;14.07;5.43;;;-1.50;50.30;;;;;;6196079;23;20188;-85
2022/03/01 07:20:53;;;;;;;7.37;5.23;;;-1.20;52.60;;;;;;6194011;23;20196;-82
2022/03/01 07:23:20;;;;;;;7.67;4.90;;;-1.00;52.10;;;;;;6193223;23;20189;-80
2022/03/01 07:25:47;;;;;;;11.13;5.47;;;-0.40;51.10;;;;;;6191501;23;20608;-81
2022/03/01 07:31:39;;;;;;;9.27;5.30;;;-0.20;44.40;;;;;;6201589;23;20138;-88
2022/03/01 07:34:17;;;;;;;9.60;5.23;;;-0.30;45.40;;;;;;6174085;23;20659;-87
2022/03/01 07:47:19;;;;;;;12.17;5.90;;;1.00;37.50;;;;;;6194186;23;20165;-85
2022/03/01 07:49:47;;;;;;;10.40;5.57;;;1.00;41.00;;;;;;6192096;23;20243;-87
2022/03/01 07:52:14;;;;;;;10.83;6.03;;;1.10;41.10;;;;;;6189832;23;20253;-85
2022/03/01 07:54:42;;;;;;;9.30;5.93;;;1.30;39.10;;;;;;6190538;23;20263;-86
2022/03/01 07:57:09;;;;;;;10.00;5.40;;;1.70;35.00;;;;;;6193108;23;20171;-87
2022/03/01 07:59:36;;;;;;;8.70;5.90;;;2.40;32.10;;;;;;6192155;23;20226;-86
2022/03/01 08:02:04;;;;;;;10.03;5.40;;;2.30;28.80;;;;;;6167284;23;20171;-87
2022/03/01 08:07:56;;;;;;;11.47;5.37;;;2.00;31.10;;;;;;6194002;23;20142;-86
2022/03/01 08:10:28;;;;;;;7.40;5.30;;;2.00;32.40;;;;;;6194193;23;20159;-86
2022/03/01 08:13:18;;;;;;;11.93;6.03;;;2.10;32.90;;;;;;6194138;23;20163;-87
2022/03/01 08:16:11;;;;;;;8.63;5.50;;;2.70;30.70;;;;;;6191533;23;20229;-86
2022/03/01 08:18:39;;;;;;;9.60;6.10;;;2.70;31.00;;;;;;6192850;23;20182;-88
2022/03/01 08:21:07;;;;;;;11.10;5.87;;;2.60;31.20;;;;;;6164640;23;20207;-87
2022/03/01 08:23:36;;;;;;;8.03;5.93;;;2.80;31.70;;;;;;6190777;23;20170;-89
2022/03/01 08:26:04;;;;;;;7.30;5.40;;;2.70;30.70;;;;;;6188180;23;20233;-89
2022/03/01 08:28:32;;;;;;;7.83;5.87;;;2.60;32.30;;;;;;6139617;23;20762;-89
2022/03/01 08:30:59;;;;;;;9.53;6.10;;;2.60;32.00;;;;;;6193269;23;20210;-87
2022/03/01 08:33:27;;;;;;;8.10;5.70;;;2.80;31.60;;;;;;6193379;23;20655;-88
2022/03/01 08:35:55;;;;;;;9.17;5.93;;;2.50;29.30;;;;;;6192791;23;20222;-87
2022/03/01 08:38:23;;;;;;;8.60;6.23;;;2.40;31.20;;;;;;6191514;23;20184;-88
2022/03/01 08:44:15;;;;;;;10.73;6.17;;;2.70;30.00;;;;;;6192695;23;20197;-88
2022/03/01 08:46:42;;;;;;;10.47;5.90;;;3.10;28.50;;;;;;6164203;23;20281;-90
2022/03/01 08:49:10;;;;;;;8.53;5.93;;;3.20;27.10;;;;;;6190673;23;20233;-86
2022/03/01 08:51:37;;;;;;;8.83;5.93;;;3.40;27.20;;;;;;6193262;23;20535;-86
2022/03/01 08:57:26;;;;;;;10.70;5.80;;;3.60;27.00;;;;;;6189614;23;20646;-88
2022/03/01 08:59:54;;;;;;;11.13;6.40;;;4.10;24.60;;;;;;6192038;23;20855;-85
2022/03/01 09:02:21;;;;;;;14.23;6.23;;;4.60;24.00;;;;;;6189766;23;20277;-85
2022/03/01 09:04:49;;;;;;;11.70;6.17;;;5.10;23.10;;;;;;6194545;23;20238;-87
2022/03/01 09:07:22;;;;;;;8.07;6.03;;;5.60;21.80;;;;;;6162273;23;20258;-88
2022/03/01 09:09:49;;;;;;;11.75;6.13;;;6.10;22.10;;;;;;6189969;23;20205;-86
2022/03/01 09:12:16;;;;;;;7.22;5.25;;;7.40;19.20;;;;;;6193983;23;20202;-87
2022/03/01 09:14:43;;;;;;;10.82;6.13;;;7.90;17.80;;;;;;6193788;23;20289;-86
2022/03/01 09:17:47;;;;;;;6.60;5.40;;;8.10;17.10;;;;;;6195150;23;20178;-86
2022/03/01 09:20:15;;;;;;;7.65;5.57;;;8.40;16.20;;;;;;6194363;23;20233;-88
2022/03/01 09:22:55;;;;;;;10.05;5.68;;;8.80;15.90;;;;;;6205371;23;20171;-88
2022/03/01 09:28:36;;;;;;;8.07;5.00;;;9.70;14.80;;;;;;6147036;23;20159;-90
2022/03/01 09:41:13;;;;;;;8.98;6.00;;;11.80;10.90;;;;;;6158199;23;20194;-88
2022/03/01 09:43:41;;;;;;;6.93;5.82;;;13.10;9.90;;;;;;6201987;23;20214;-89
2022/03/01 09:46:15;;;;;;;7.72;5.95;;;13.30;9.00;;;;;;6195684;23;20270;-88
2022/03/01 09:48:42;;;;;;;7.03;5.88;;;13.80;7.30;;;;;;6197197;23;20198;-87
2022/03/01 09:51:10;;;;;;;7.65;6.43;;;14.40;7.30;;;;;;6196610;23;20217;-88
2022/03/01 09:53:41;;;;;;;7.43;5.95;;;13.50;7.10;;;;;;6200607;23;20179;-88
2022/03/01 09:57:00;;;;;;;7.47;5.97;;;13.40;8.30;;;;;;6199578;23;20210;-90
2022/03/01 10:05:51;;;;;;;6.70;5.97;;;13.30;9.10;;;;;;6188771;23;20561;-89
2022/03/01 10:08:24;;;;;;;8.75;6.07;;;11.90;8.90;;;;;;6203975;23;20202;-89
2022/03/01 10:10:57;;;;;;;8.32;6.68;;;12.80;8.40;;;;;;6203994;23;20202;-90
2022/03/01 10:13:30;;;;;;;7.40;6.10;;;11.20;10.30;;;;;;6205281;23;20186;-88
2022/03/01 10:16:31;;;;;;;8.30;5.88;;;12.50;9.30;;;;;;6139313;23;20227;-88
2022/03/01 10:25:59;;;;;;;7.43;5.93;;;12.90;7.90;;;;;;5939170;24;20255;-89
2022/03/01 10:28:34;;;;;;;36.13;27.88;;;13.70;6.90;;;;;;6006812;23;20178;-88
2022/03/01 10:34:03;;;;;;;10.10;5.93;;;14.20;7.20;;;;;;6191580;23;20254;-90
2022/03/01 10:36:46;;;;;;;6.40;5.78;;;14.40;7.40;;;;;;6180342;23;20178;-88
2022/03/01 10:42:16;;;;;;;8.48;6.07;;;12.80;9.20;;;;;;6195209;23;20179;-88
2022/03/01 10:47:25;;;;;;;6.15;5.55;;;12.20;8.20;;;;;;6200591;23;20218;-88
2022/03/01 10:50:06;;;;;;;7.85;6.28;;;13.00;6.80;;;;;;6201904;23;20221;-88
2022/03/01 10:52:36;;;;;;;6.50;5.78;;;11.90;7.70;;;;;;6203075;23;20186;-87
2022/03/01 10:58:41;;;;;;;6.88;5.40;;;11.50;9.20;;;;;;6202908;23;20167;-86
2022/03/01 11:04:01;;;;;;;8.05;5.93;;;10.80;6.90;;;;;;6168414;23;20634;-87
2022/03/01 11:06:31;;;;;;;7.45;5.03;;;11.10;8.50;;;;;;6179025;23;20207;-87
2022/03/01 11:09:29;;;;;;;8.07;5.47;;;11.80;9.30;;;;;;6204248;23;20258;-87
2022/03/01 11:12:01;;;;;;;5.95;4.50;;;10.80;6.50;;;;;;6203786;23;20218;-89
2022/03/01 11:14:35;;;;;;;7.75;4.72;;;10.30;8.80;;;;;;6198266;23;20211;-87
2022/03/01 11:17:20;;;;;;;5.55;4.60;;;9.80;10.10;;;;;;6193690;23;20197;-88
2022/03/01 11:19:55;;;;;;;8.85;5.18;;;9.40;11.30;;;;;;6193687;23;20210;-86
2022/03/01 11:22:25;;;;;;;8.40;5.38;;;8.90;12.70;;;;;;6188381;23;20163;-87
2022/03/01 11:24:53;;;;;;;8.40;5.28;;;9.10;12.60;;;;;;6188266;23;20254;-88
2022/03/01 11:27:21;;;;;;;5.97;4.53;;;8.70;12.80;;;;;;6187800;23;20639;-86
2022/03/01 11:29:48;;;;;;;6.57;4.95;;;8.80;12.80;;;;;;6188978;23;20274;-87
2022/03/01 11:32:18;;;;;;;6.93;4.72;;;8.80;12.90;;;;;;6185773;23;20284;-88
2022/03/01 11:34:46;;;;;;;6.22;4.90;;;8.60;13.00;;;;;;6183228;23;20253;-88
2022/03/01 11:37:16;;;;;;;8.57;5.20;;;8.30;13.00;;;;;;6184802;23;20253;-88
2022/03/01 11:39:54;;;;;;;7.82;4.75;;;8.20;13.20;;;;;;6182345;23;20297;-88
2022/03/01 11:42:23;;;;;;;6.90;4.93;;;8.10;12.90;;;;;;6186704;23;20190;-87
2022/03/01 11:44:52;;;;;;;6.43;4.67;;;8.00;13.00;;;;;;6187364;23;20331;-88
2022/03/01 11:47:29;;;;;;;7.73;4.67;;;7.90;13.30;;;;;;6186379;23;20278;-88
2022/03/01 11:49:57;;;;;;;8.00;4.73;;;7.80;13.30;;;;;;6188034;23;20698;-86
2022/03/01 11:52:27;;;;;;;7.83;4.60;;;7.80;13.70;;;;;;6188075;23;20278;-88
2022/03/01 11:54:58;;;;;;;11.77;4.97;;;7.80;14.60;;;;;;6187743;23;20285;-87
2022/03/01 11:57:29;;;;;;;6.32;4.63;;;7.60;15.10;;;;;;6186015;23;20167;-83
2022/03/01 11:59:57;;;;;;;5.10;4.50;;;7.30;14.80;;;;;;6188684;23;20207;-88
2022/03/01 12:02:28;;;;;;;6.50;4.40;;;7.50;13.90;;;;;;6190053;23;20261;-85
2022/03/01 12:08:18;;;;;;;7.30;4.30;;;7.60;13.80;;;;;;6190138;23;20224;-86
2022/03/01 12:10:53;;;;;;;7.03;4.20;;;7.50;13.70;;;;;;6200104;23;20221;-85
2022/03/01 12:13:23;;;;;;;5.33;4.10;;;7.20;14.00;;;;;;6147852;23;20174;-85
2022/03/01 12:15:57;;;;;;;6.00;3.80;;;7.00;13.70;;;;;;6197182;23;20277;-86
2022/03/01 12:18:31;;;;;;;4.83;3.77;;;7.20;12.10;;;;;;6196768;23;20238;-88
2022/03/01 12:21:03;;;;;;;6.60;3.60;;;7.40;11.70;;;;;;6199582;23;20225;-85
2022/03/01 12:23:32;;;;;;;5.33;4.23;;;7.40;12.40;;;;;;6196362;23;20670;-88
2022/03/01 12:26:02;;;;;;;4.57;3.77;;;7.30;12.40;;;;;;6191746;23;20214;-87
2022/03/01 12:28:47;;;;;;;7.70;4.27;;;7.40;12.60;;;;;;6191917;23;20627;-86
2022/03/01 12:31:16;;;;;;;6.53;3.60;;;7.50;13.30;;;;;;6194739;23;20218;-89
2022/03/01 12:33:52;;;;;;;4.50;3.60;;;7.50;11.90;;;;;;6197544;23;20174;-89
2022/03/01 12:36:29;;;;;;;5.90;4.00;;;7.60;11.40;;;;;;6197472;23;20242;-87
2022/03/01 12:38:59;;;;;;;4.93;3.73;;;7.60;12.10;;;;;;6196938;23;20246;-87
2022/03/01 12:42:05;;;;;;;5.43;3.70;;;7.70;12.30;;;;;;6193725;23;20193;-87
2022/03/01 12:44:34;;;;;;;7.53;4.10;;;7.70;11.90;;;;;;6196028;23;20209;-84
2022/03/01 12:47:03;;;;;;;5.77;4.27;;;7.40;12.50;;;;;;6172374;23;20205;-85
2022/03/01 12:52:19;;;;;;;5.87;3.77;;;7.00;12.30;;;;;;6200288;23;20209;-87
2022/03/01 12:54:54;;;;;;;4.33;3.73;;;7.20;12.80;;;;;;6175504;23;20178;-85
2022/03/01 12:57:37;;;;;;;3.57;3.20;;;7.00;11.70;;;;;;6199637;23;20166;-88
2022/03/01 13:00:10;;;;;;;5.27;3.90;;;6.90;11.80;;;;;;6197089;23;20549;-88
2022/03/01 13:02:37;;;;;;;4.63;3.70;;;7.00;12.70;;;;;;6171847;23;20246;-85
2022/03/01 13:05:09;;;;;;;4.83;3.60;;;7.00;12.40;;;;;;6172177;23;20456;-86
2022/03/01 13:07:39;;;;;;;4.00;3.40;;;7.30;12.80;;;;;;6198487;23;20478;-89
2022/03/01 13:10:07;;;;;;;4.20;3.63;;;7.40;13.20;;;;;;6197162;23;20202;-85
2022/03/01 13:12:53;;;;;;;6.07;3.60;;;7.40;13.10;;;;;;6197908;23;20171;-86
2022/03/01 13:15:27;;;;;;;5.53;4.20;;;7.50;12.80;;;;;;6198972;23;20205;-87
2022/03/01 13:17:55;;;;;;;5.93;4.00;;;7.60;12.90;;;;;;6196747;23;20175;-91
2022/03/01 13:20:23;;;;;;;5.93;3.70;;;7.70;12.50;;;;;;6168982;23;20206;-89
2022/03/01 13:23:08;;;;;;;4.80;3.88;;;7.80;12.50;;;;;;6200362;23;20262;-90
2022/03/01 13:25:39;;;;;;;8.20;3.90;;;7.90;12.80;;;;;;6208357;23;20199;-89
2022/03/01 13:28:06;;;;;;;6.80;3.60;;;7.90;13.60;;;;;;6182942;23;20208;-88
2022/03/01 13:30:35;;;;;;;6.25;3.78;;;7.80;13.60;;;;;;6194352;23;20222;-90
2022/03/01 13:33:11;;;;;;;4.80;3.80;;;7.90;13.10;;;;;;6171597;23;20264;-90
2022/03/01 13:35:40;;;;;;;5.60;3.53;;;7.80;13.20;;;;;;6170705;23;20202;-91
2022/03/01 13:38:11;;;;;;;4.60;3.72;;;7.80;13.10;;;;;;6199307;23;20238;-91
2022/03/01 13:40:45;;;;;;;4.57;3.45;;;7.90;12.30;;;;;;6194429;23;20206;-92
2022/03/01 13:43:28;;;;;;;5.07;3.58;;;7.90;12.10;;;;;;6193427;23;20173;-90
2022/03/01 13:45:57;;;;;;;4.30;3.55;;;7.90;11.90;;;;;;6198842;23;20259;-91
2022/03/01 13:58:50;;;;;;;4.90;3.33;;;7.70;12.80;;;;;;6205573;23;20198;-89
2022/03/01 14:01:17;;;;;;;7.30;3.17;;;7.70;12.80;;;;;;6183378;23;20205;-90
2022/03/01 14:06:33;;;;;;;4.50;3.90;;;7.90;11.70;;;;;;6133287;23;20640;-88
2022/03/01 14:09:13;;;;;;;4.30;3.42;;;7.90;11.90;;;;;;6204262;23;20182;-89
2022/03/01 14:11:41;;;;;;;5.45;3.42;;;7.90;12.30;;;;;;6178401;23;20218;-87
2022/03/01 14:14:17;;;;;;;4.80;3.60;;;7.80;12.60;;;;;;6177936;23;20566;-87
2022/03/01 14:16:48;;;;;;;4.20;3.50;;;7.80;12.40;;;;;;6202588;23;20173;-85
2022/03/01 14:19:19;;;;;;;5.43;3.33;;;7.60;12.60;;;;;;6200441;23;20265;-87
2022/03/01 14:21:48;;;;;;;4.20;3.30;;;7.60;13.70;;;;;;6176405;23;20167;-87
2022/03/01 14:24:18;;;;;;;8.65;3.70;;;7.80;12.90;;;;;;6183340;23;20561;-86
2022/03/01 14:26:49;;;;;;;5.83;3.73;;;7.80;13.00;;;;;;6183588;23;20213;-87
2022/03/01 14:29:17;;;;;;;4.93;3.27;;;7.80;13.40;;;;;;6202571;23;20198;-86
2022/03/01 14:31:46;;;;;;;5.43;3.70;;;7.40;14.00;;;;;;6201645;23;20546;-88
2022/03/01 14:34:13;;;;;;;7.10;3.73;;;7.50;14.80;;;;;;6175120;23;20222;-87
2022/03/01 14:36:41;;;;;;;8.15;3.95;;;7.60;14.00;;;;;;6204814;23;20202;-87
2022/03/01 14:39:10;;;;;;;8.63;3.90;;;7.60;13.80;;;;;;6176899;23;20174;-87
2022/03/01 14:41:37;;;;;;;4.53;3.40;;;7.60;13.90;;;;;;6204779;23;20186;-87
2022/03/01 14:44:05;;;;;;;5.27;3.87;;;7.60;13.70;;;;;;6177819;23;20210;-84
2022/03/01 14:46:35;;;;;;;3.65;3.22;;;7.40;14.40;;;;;;6205417;23;20191;-86
2022/03/01 14:49:02;;;;;;;7.18;3.72;;;7.50;13.90;;;;;;6161105;23;20225;-86
2022/03/01 14:51:30;;;;;;;4.47;3.67;;;7.40;14.20;;;;;;6182022;23;20171;-87
2022/03/01 14:53:58;;;;;;;6.63;3.75;;;7.50;13.50;;;;;;6178466;23;20202;-87
2022/03/01 14:56:26;;;;;;;4.23;3.33;;;7.50;13.00;;;;;;6180028;23;20178;-86
2022/03/01 14:58:53;;;;;;;5.33;3.67;;;7.40;13.50;;;;;;6201006;23;20182;-85
2022/03/01 15:01:20;;;;;;;4.32;3.08;;;7.30;13.80;;;;;;6205895;23;20193;-87
2022/03/01 15:03:49;;;;;;;4.20;3.53;;;7.40;13.50;;;;;;6180840;23;20179;-86
2022/03/01 15:06:17;;;;;;;3.87;3.10;;;7.40;13.80;;;;;;6153336;23;20194;-86
2022/03/01 15:08:44;;;;;;;5.85;3.60;;;7.40;13.90;;;;;;6205823;23;20182;-86
2022/03/01 15:11:11;;;;;;;7.00;3.67;;;7.40;14.90;;;;;;6201868;23;20225;-84
2022/03/01 15:13:39;;;;;;;4.00;3.37;;;7.40;14.90;;;;;;6202411;23;20171;-86
2022/03/01 15:16:06;;;;;;;4.97;3.37;;;7.30;15.30;;;;;;6202423;23;20580;-84
2022/03/01 15:18:33;;;;;;;5.68;3.70;;;7.10;15.00;;;;;;6202628;23;20202;-85
2022/03/01 15:21:04;;;;;;;5.60;3.50;;;7.10;14.90;;;;;;6177160;23;20206;-86
2022/03/01 15:23:34;;;;;;;5.83;3.53;;;7.20;14.60;;;;;;6204771;23;20214;-86
2022/03/01 15:26:02;;;;;;;8.17;3.30;;;7.20;15.10;;;;;;6200328;23;20245;-86
2022/03/01 15:28:30;;;;;;;4.57;3.60;;;7.10;15.20;;;;;;6200637;23;20230;-85
2022/03/01 15:30:57;;;;;;;10.13;4.10;;;7.10;15.30;;;;;;6199445;23;20233;-86
2022/03/01 15:33:25;;;;;;;5.80;3.60;;;7.10;15.40;;;;;;6202483;23;20190;-85
2022/03/01 15:35:52;;;;;;;5.23;3.90;;;7.10;15.40;;;;;;6177221;23;20202;-85
2022/03/01 15:38:21;;;;;;;7.90;3.70;;;7.00;15.20;;;;;;6176344;23;20175;-86
2022/03/01 15:40:49;;;;;;;5.90;3.90;;;6.90;15.60;;;;;;6199170;23;20213;-87
2022/03/01 15:43:19;;;;;;;5.77;3.70;;;6.80;15.80;;;;;;6195547;23;20178;-86
2022/03/01 15:45:46;;;;;;;5.63;4.40;;;6.80;15.90;;;;;;6161864;23;20780;-85
2022/03/01 15:48:14;;;;;;;5.57;3.77;;;6.70;16.50;;;;;;6165470;23;20212;-85
2022/03/01 15:50:43;;;;;;;6.20;4.20;;;6.70;16.70;;;;;;6195014;23;20373;-89
2022/03/01 15:53:10;;;;;;;5.23;3.83;;;6.60;17.00;;;;;;6199406;23;20167;-86
2022/03/01 15:55:39;;;;;;;6.20;4.27;;;6.60;17.20;;;;;;6199153;23;20221;-84
2022/03/01 15:58:11;;;;;;;6.30;3.90;;;6.50;17.10;;;;;;6204085;23;20190;-89
2022/03/01 16:00:38;;;;;;;4.43;3.70;;;6.50;16.90;;;;;;6211184;23;20249;-85
2022/03/01 16:03:06;;;;;;;6.77;4.13;;;6.50;17.10;;;;;;6202319;23;20183;-85
2022/03/01 16:05:33;;;;;;;6.13;3.73;;;6.50;17.30;;;;;;6197728;23;20206;-86
2022/03/01 16:08:01;;;;;;;5.80;4.10;;;6.40;17.50;;;;;;6174869;23;20250;-87
2022/03/01 16:10:28;;;;;;;5.23;3.90;;;6.30;18.00;;;;;;6171407;23;20397;-86
2022/03/01 16:12:57;;;;;;;5.63;4.33;;;6.30;18.80;;;;;;6199467;23;20185;-86
2022/03/01 16:15:26;;;;;;;4.80;4.07;;;6.30;18.60;;;;;;6198679;23;20271;-87
2022/03/01 16:17:53;;;;;;;7.63;4.97;;;6.30;18.80;;;;;;6175198;23;20592;-87
2022/03/01 16:20:22;;;;;;;4.90;4.13;;;6.20;18.80;;;;;;6175389;23;20208;-85
2022/03/01 16:22:49;;;;;;;7.77;4.20;;;6.20;19.00;;;;;;6174322;23;20182;-86
2022/03/01 16:25:16;;;;;;;10.60;4.97;;;6.10;19.50;;;;;;6198105;23;20210;-86
2022/03/01 16:27:46;;;;;;;9.47;4.90;;;6.00;20.00;;;;;;6199374;23;20229;-85
2022/03/01 16:30:15;;;;;;;8.27;5.00;;;5.80;21.90;;;;;;6198861;23;20203;-84
2022/03/01 16:32:43;;;;;;;7.33;4.87;;;5.70;21.90;;;;;;6199279;23;20233;-85
2022/03/01 16:35:10;;;;;;;7.00;4.97;;;5.70;21.90;;;;;;6196908;23;20273;-85
2022/03/01 16:37:38;;;;;;;6.60;5.07;;;5.60;21.80;;;;;;6199392;23;20569;-84
2022/03/01 16:40:07;;;;;;;8.67;5.10;;;5.60;21.80;;;;;;6198936;23;20229;-85
2022/03/01 16:42:34;;;;;;;6.80;4.70;;;5.50;21.70;;;;;;6200191;23;20240;-84
2022/03/01 16:48:55;;;;;;;7.10;4.83;;;5.40;22.30;;;;;;6206656;23;20293;-84
2022/03/01 16:54:12;;;;;;;7.83;5.33;;;5.30;22.90;;;;;;6208295;23;20198;-84
2022/03/01 16:56:40;;;;;;;8.67;4.77;;;5.20;23.30;;;;;;6195210;23;20201;-86
2022/03/01 16:59:09;;;;;;;8.77;5.50;;;5.20;23.70;;;;;;6169167;23;20240;-80
2022/03/01 17:01:36;;;;;;;7.30;5.10;;;5.10;24.00;;;;;;6196489;23;20250;-82
2022/03/01 17:04:07;;;;;;;7.33;5.27;;;5.00;24.30;;;;;;6196580;23;20179;-81
2022/03/01 17:06:40;;;;;;;10.27;5.23;;;4.90;24.70;;;;;;6197342;23;20163;-82
2022/03/01 17:09:09;;;;;;;8.70;5.73;;;4.80;25.00;;;;;;6193183;23;20241;-82
2022/03/01 17:11:36;;;;;;;9.03;5.30;;;4.70;25.20;;;;;;6195294;23;20209;-84
2022/03/01 17:14:04;;;;;;;8.63;5.50;;;4.60;25.80;;;;;;6193732;23;20171;-85
2022/03/01 17:16:32;;;;;;;7.50;5.03;;;4.50;26.20;;;;;;6168086;23;20181;-81
2022/03/01 17:18:59;;;;;;;9.83;5.57;;;4.40;26.40;;;;;;6195947;23;20178;-82
2022/03/01 17:21:31;;;;;;;9.93;6.90;;;4.30;26.80;;;;;;6192260;23;20592;-84
2022/03/01 17:23:58;;;;;;;9.90;6.07;;;4.40;27.00;;;;;;6189758;23;20194;-84
2022/03/01 17:26:27;;;;;;;9.87;5.53;;;4.20;27.40;;;;;;6192934;23;20174;-84
2022/03/01 17:28:54;;;;;;;13.37;5.90;;;4.10;27.70;;;;;;6195206;23;20198;-85
2022/03/01 17:31:21;;;;;;;10.10;5.60;;;4.00;28.10;;;;;;6193780;23;20253;-85
2022/03/01 17:33:48;;;;;;;7.27;5.80;;;3.90;28.10;;;;;;6194207;23;20868;-84
2022/03/01 17:36:15;;;;;;;10.40;5.40;;;3.90;28.30;;;;;;6193437;23;20282;-85
2022/03/01 17:38:53;;;;;;;9.97;6.30;;;3.80;28.40;;;;;;6193905;23;20247;-84
2022/03/01 17:41:20;;;;;;;9.87;5.83;;;3.80;30.10;;;;;;6192159;23;20175;-83
2022/03/01 17:44:42;;;;;;;11.00;5.47;;;3.80;29.20;;;;;;6166554;23;20189;-83
2022/03/01 17:47:09;;;;;;;8.03;5.20;;;3.80;28.80;;;;;;6193641;23;20187;-87
2022/03/01 17:49:54;;;;;;;8.03;5.10;;;3.80;27.90;;;;;;6166685;23;20265;-83
2022/03/01 17:52:21;;;;;;;7.63;5.07;;;3.80;27.50;;;;;;6194738;23;20190;-84
2022/03/01 17:54:50;;;;;;;8.50;5.20;;;3.80;27.80;;;;;;6194722;23;20234;-84
2022/03/01 17:57:17;;;;;;;8.83;5.40;;;3.80;27.40;;;;;;6194251;23;20189;-84
2022/03/01 17:59:54;;;;;;;10.77;6.07;;;3.70;28.20;;;;;;6197626;23;20202;-84
2022/03/01 18:02:32;;;;;;;13.33;7.23;;;3.60;28.40;;;;;;6198933;23;20219;-86
2022/03/01 18:04:59;;;;;;;12.90;5.93;;;3.80;30.00;;;;;;6176992;23;20229;-85
2022/03/01 18:07:27;;;;;;;12.33;5.40;;;3.90;27.30;;;;;;6199872;23;20298;-86
2022/03/01 18:09:56;;;;;;;10.53;6.83;;;3.80;27.50;;;;;;6198657;23;20234;-87
2022/03/01 18:12:24;;;;;;;9.70;5.43;;;3.80;28.70;;;;;;6201042;23;20198;-89
2022/03/01 18:15:01;;;;;;;13.33;7.30;;;3.80;28.00;;;;;;6198099;23;20295;-86
2022/03/01 18:17:28;;;;;;;8.90;5.20;;;3.70;29.30;;;;;;6191343;23;20197;-87
2022/03/01 18:19:56;;;;;;;10.63;6.13;;;3.60;28.00;;;;;;6189860;23;20226;-91
2022/03/01 18:22:24;;;;;;;12.23;7.93;;;3.50;28.20;;;;;;6189136;23;20257;-87
2022/03/01 18:24:51;;;;;;;11.47;7.37;;;3.70;31.60;;;;;;6191612;23;20250;-88
2022/03/01 18:27:24;;;;;;;13.23;7.90;;;3.90;30.20;;;;;;6168331;23;20569;-89
2022/03/01 18:29:51;;;;;;;10.70;7.73;;;4.10;31.60;;;;;;6201428;23;20229;-88
2022/03/01 18:32:19;;;;;;;14.77;7.60;;;4.30;30.60;;;;;;6203993;23;20175;-85
2022/03/01 18:34:54;;;;;;;10.23;7.60;;;4.50;30.70;;;;;;6197931;23;20206;-85
2022/03/01 18:37:21;;;;;;;10.90;7.57;;;4.50;30.40;;;;;;6199052;23;20201;-85
2022/03/01 18:39:52;;;;;;;12.47;8.20;;;4.50;29.40;;;;;;6197929;23;20206;-87
2022/03/01 18:42:21;;;;;;;14.47;8.07;;;4.50;29.80;;;;;;6173795;23;20194;-84
2022/03/01 18:44:56;;;;;;;15.33;8.10;;;4.50;29.80;;;;;;6186062;23;20206;-86
2022/03/01 18:47:23;;;;;;;12.87;7.60;;;4.50;30.10;;;;;;6198807;23;20184;-84
2022/03/01 18:49:52;;;;;;;11.10;7.27;;;4.40;31.20;;;;;;6195332;23;20250;-88
2022/03/01 18:52:42;;;;;;;9.20;6.70;;;4.20;30.40;;;;;;6193886;23;20187;-85
2022/03/01 18:55:10;;;;;;;15.10;8.00;;;3.80;29.30;;;;;;6193561;23;20537;-86
2022/03/01 18:57:39;;;;;;;13.30;7.60;;;3.50;31.70;;;;;;6197842;23;20187;-87
2022/03/01 19:00:08;;;;;;;12.23;8.13;;;3.30;31.80;;;;;;6192053;23;20250;-87
2022/03/01 19:02:36;;;;;;;11.20;7.83;;;3.50;33.50;;;;;;6165905;23;20174;-86
2022/03/01 19:05:03;;;;;;;14.07;7.17;;;3.60;32.00;;;;;;6191504;23;20206;-85
2022/03/01 19:07:34;;;;;;;11.90;7.40;;;3.60;30.80;;;;;;6191735;23;20178;-89
2022/03/01 19:10:02;;;;;;;15.63;7.80;;;3.20;31.50;;;;;;6166793;23;20206;-86
2022/03/01 19:12:30;;;;;;;12.30;7.50;;;2.90;32.60;;;;;;6196510;23;20213;-85
2022/03/01 19:14:59;;;;;;;12.77;7.90;;;2.90;34.40;;;;;;6201756;23;20213;-86